Time;durP1;ratioP1;P1;durP2;ratioP2;P2;SDS_P1;SDS_P2;PMS_P1;PMS_P2;Temp;Humidity;BMP_temperature;BMP_pressure;BME280_temperature;BME280_humidity;BME280_pressure;Samples;Min_cycle;Max_cycle;Signal;HPM_P1;HPM_P2
2021/08/01 00:01:02;;;;;;;4.97;2.97;;;;;;;;;;4991428;28;20051;-84
2021/08/01 00:03:29;;;;;;;5.57;3.60;;;;;;;;;;4991121;28;20058;-84
2021/08/01 00:05:55;;;;;;;4.05;3.42;;;;;;;;;;4990803;28;20046;-84
2021/08/01 00:08:23;;;;;;;5.63;2.95;;;;;;;;;;4991071;28;20054;-84
2021/08/01 00:10:50;;;;;;;2.80;2.15;;;;;;;;;;4991222;28;20047;-83
2021/08/01 00:13:16;;;;;;;3.72;2.40;;;;;;;;;;4990744;28;20065;-84
2021/08/01 00:15:43;;;;;;;4.80;3.03;;;;;;;;;;4990802;28;20050;-84
2021/08/01 00:18:11;;;;;;;3.90;3.15;;;;;;;;;;4990802;28;20057;-83
2021/08/01 00:20:38;;;;;;;4.18;2.40;;;;;;;;;;4990780;28;20104;-84
2021/08/01 00:23:04;;;;;;;8.50;3.80;;;;;;;;;;4990635;28;20050;-84
2021/08/01 00:25:31;;;;;;;4.22;2.53;;;;;;;;;;4990933;28;20059;-84
2021/08/01 00:27:57;;;;;;;2.80;1.73;;;;;;;;;;4990760;28;20780;-84
2021/08/01 00:30:24;;;;;;;3.50;1.92;;;;;;;;;;4990925;28;20117;-84
2021/08/01 00:32:50;;;;;;;3.22;1.65;;;;;;;;;;4990440;28;20054;-84
2021/08/01 00:35:19;;;;;;;2.78;1.83;;;;;;;;;;4990739;28;20105;-83
2021/08/01 00:37:46;;;;;;;2.90;2.22;;;;;;;;;;4990536;28;20042;-84
2021/08/01 00:40:12;;;;;;;2.28;1.50;;;;;;;;;;4990667;28;20441;-83
2021/08/01 00:42:41;;;;;;;3.25;2.00;;;;;;;;;;4990389;28;20051;-84
2021/08/01 00:45:08;;;;;;;3.88;1.92;;;;;;;;;;4990630;28;20394;-83
2021/08/01 00:47:35;;;;;;;2.30;1.88;;;;;;;;;;4990192;28;20053;-83
2021/08/01 00:50:03;;;;;;;2.40;1.73;;;;;;;;;;4990859;28;20046;-84
2021/08/01 00:52:31;;;;;;;4.15;2.10;;;;;;;;;;4990164;28;20050;-83
2021/08/01 00:54:58;;;;;;;8.98;3.92;;;;;;;;;;4990386;28;20047;-83
2021/08/01 00:57:25;;;;;;;5.15;3.00;;;;;;;;;;4989892;28;20069;-83
2021/08/01 00:59:52;;;;;;;6.03;2.60;;;;;;;;;;4990139;28;20058;-84
2021/08/01 01:02:19;;;;;;;5.25;2.78;;;;;;;;;;4990468;28;20110;-84
2021/08/01 01:04:51;;;;;;;3.95;2.17;;;;;;;;;;4989996;28;20521;-83
2021/08/01 01:07:21;;;;;;;2.88;2.13;;;;;;;;;;4990367;28;20050;-83
2021/08/01 01:09:54;;;;;;;5.53;2.28;;;;;;;;;;4990362;28;20045;-83
2021/08/01 01:12:22;;;;;;;3.90;2.55;;;;;;;;;;4990279;28;20054;-83
2021/08/01 01:14:49;;;;;;;3.28;2.50;;;;;;;;;;4990295;28;20109;-83
2021/08/01 01:17:19;;;;;;;2.80;1.67;;;;;;;;;;4989835;28;20050;-83
2021/08/01 01:20:12;;;;;;;4.38;2.40;;;;;;;;;;4990114;28;20417;-84
2021/08/01 01:22:40;;;;;;;5.47;2.22;;;;;;;;;;4933255;28;20383;-84
2021/08/01 01:25:15;;;;;;;2.47;1.60;;;;;;;;;;4989899;28;20042;-83
2021/08/01 01:27:45;;;;;;;2.47;1.88;;;;;;;;;;4989741;28;20051;-83
2021/08/01 01:30:12;;;;;;;2.45;2.03;;;;;;;;;;4990067;28;20046;-84
2021/08/01 01:32:44;;;;;;;3.47;2.13;;;;;;;;;;4989835;28;20062;-83
2021/08/01 01:35:13;;;;;;;2.78;1.95;;;;;;;;;;4989622;28;20050;-84
2021/08/01 01:37:41;;;;;;;2.83;2.15;;;;;;;;;;4990001;28;20058;-84
2021/08/01 01:40:08;;;;;;;2.83;1.88;;;;;;;;;;4990007;28;20050;-84
2021/08/01 01:42:36;;;;;;;2.80;2.03;;;;;;;;;;4989517;28;20062;-84
2021/08/01 01:45:03;;;;;;;2.70;1.88;;;;;;;;;;4989942;28;20093;-84
2021/08/01 01:47:29;;;;;;;3.65;2.13;;;;;;;;;;4989842;28;20117;-84
2021/08/01 01:49:57;;;;;;;2.35;1.40;;;;;;;;;;4989691;28;20109;-84
2021/08/01 01:52:24;;;;;;;2.60;1.77;;;;;;;;;;4989752;28;20058;-83
2021/08/01 01:54:52;;;;;;;3.42;1.48;;;;;;;;;;4989887;28;20057;-84
2021/08/01 01:57:19;;;;;;;4.43;2.28;;;;;;;;;;4989633;28;20486;-83
2021/08/01 01:59:46;;;;;;;3.97;1.75;;;;;;;;;;4989507;28;20050;-83
2021/08/01 02:02:14;;;;;;;2.45;2.00;;;;;;;;;;4989381;28;20054;-83
2021/08/01 02:04:40;;;;;;;3.38;2.25;;;;;;;;;;4989483;28;20066;-84
2021/08/01 02:07:07;;;;;;;3.08;1.60;;;;;;;;;;4989585;28;20050;-83
2021/08/01 02:09:38;;;;;;;2.63;1.50;;;;;;;;;;4989754;28;20055;-83
2021/08/01 02:12:08;;;;;;;3.70;2.15;;;;;;;;;;4993174;28;20050;-83
2021/08/01 02:14:41;;;;;;;3.47;2.42;;;;;;;;;;4992994;28;20401;-83
2021/08/01 02:17:11;;;;;;;18.17;2.75;;;;;;;;;;4993067;28;20042;-83
2021/08/01 02:19:39;;;;;;;2.42;1.80;;;;;;;;;;4993394;28;20054;-83
2021/08/01 02:22:06;;;;;;;5.03;2.08;;;;;;;;;;4992997;28;20051;-83
2021/08/01 02:24:33;;;;;;;2.38;1.70;;;;;;;;;;4992865;28;20056;-83
2021/08/01 02:27:00;;;;;;;3.30;1.90;;;;;;;;;;4992946;28;20054;-83
2021/08/01 02:29:28;;;;;;;2.58;1.73;;;;;;;;;;4993252;28;20055;-84
2021/08/01 02:31:55;;;;;;;2.30;1.73;;;;;;;;;;4992632;28;20046;-83
2021/08/01 02:34:23;;;;;;;3.72;1.45;;;;;;;;;;4992913;28;20050;-83
2021/08/01 02:36:51;;;;;;;2.58;1.77;;;;;;;;;;4992872;28;20047;-83
2021/08/01 02:39:18;;;;;;;1.90;1.60;;;;;;;;;;4992863;28;20050;-83
2021/08/01 02:41:46;;;;;;;3.03;1.58;;;;;;;;;;4992922;28;20046;-84
2021/08/01 02:44:14;;;;;;;6.72;2.35;;;;;;;;;;4992557;28;20576;-83
2021/08/01 02:46:43;;;;;;;2.65;1.85;;;;;;;;;;4992902;28;20101;-84
2021/08/01 02:49:14;;;;;;;2.90;2.53;;;;;;;;;;4992841;28;20073;-84
2021/08/01 02:51:40;;;;;;;3.28;1.98;;;;;;;;;;4992839;28;20046;-82
2021/08/01 02:54:08;;;;;;;4.05;3.25;;;;;;;;;;4992387;28;20058;-82
2021/08/01 02:56:36;;;;;;;3.42;2.42;;;;;;;;;;4992327;28;20047;-82
2021/08/01 02:59:03;;;;;;;2.45;2.25;;;;;;;;;;4992707;28;20069;-82
2021/08/01 03:01:30;;;;;;;2.85;1.63;;;;;;;;;;4992391;28;20494;-83
2021/08/01 03:03:58;;;;;;;2.35;1.83;;;;;;;;;;4992371;28;20047;-83
2021/08/01 03:06:32;;;;;;;3.30;2.28;;;;;;;;;;4992504;28;20050;-82
2021/08/01 03:08:59;;;;;;;2.88;1.88;;;;;;;;;;4992589;28;20050;-82
2021/08/01 03:11:26;;;;;;;3.08;2.58;;;;;;;;;;4992247;28;21132;-81
2021/08/01 03:13:52;;;;;;;4.68;2.08;;;;;;;;;;4991937;28;20054;-81
2021/08/01 03:16:19;;;;;;;2.83;2.30;;;;;;;;;;4992405;28;20054;-81
2021/08/01 03:18:45;;;;;;;4.93;1.77;;;;;;;;;;4992356;28;20061;-81
2021/08/01 03:21:13;;;;;;;3.47;1.75;;;;;;;;;;4992148;28;20420;-81
2021/08/01 03:23:40;;;;;;;7.45;3.50;;;;;;;;;;4992245;28;20046;-82
2021/08/01 03:26:06;;;;;;;3.85;1.88;;;;;;;;;;4991929;28;20054;-83
2021/08/01 03:28:33;;;;;;;3.70;2.17;;;;;;;;;;4991839;28;20061;-82
2021/08/01 03:30:59;;;;;;;2.88;2.10;;;;;;;;;;4992117;28;20057;-83
2021/08/01 03:33:26;;;;;;;2.55;1.42;;;;;;;;;;4992048;28;20058;-83
2021/08/01 03:35:52;;;;;;;2.92;1.95;;;;;;;;;;4991813;28;20054;-82
2021/08/01 03:38:20;;;;;;;2.45;1.92;;;;;;;;;;4991987;28;20046;-82
2021/08/01 03:40:47;;;;;;;4.28;1.98;;;;;;;;;;4991878;28;20050;-82
2021/08/01 03:43:13;;;;;;;2.42;1.70;;;;;;;;;;4991716;28;20093;-82
2021/08/01 03:45:40;;;;;;;3.40;2.60;;;;;;;;;;4991900;28;20050;-82
2021/08/01 03:48:06;;;;;;;4.25;2.55;;;;;;;;;;4991497;28;20489;-82
2021/08/01 03:50:33;;;;;;;3.22;2.05;;;;;;;;;;4991316;28;20050;-82
2021/08/01 03:52:59;;;;;;;6.18;2.45;;;;;;;;;;4991635;28;20046;-82
2021/08/01 03:55:27;;;;;;;3.42;2.80;;;;;;;;;;4991361;28;20046;-82
2021/08/01 03:57:54;;;;;;;3.78;2.33;;;;;;;;;;4990914;28;20050;-82
2021/08/01 04:00:20;;;;;;;3.88;2.28;;;;;;;;;;4991245;28;20065;-82
2021/08/01 04:02:47;;;;;;;2.60;2.17;;;;;;;;;;4990890;28;20049;-82
2021/08/01 04:05:14;;;;;;;4.40;3.35;;;;;;;;;;4990532;28;20046;-82
2021/08/01 04:07:40;;;;;;;2.95;2.58;;;;;;;;;;4990955;28;20050;-82
2021/08/01 04:10:07;;;;;;;3.97;2.80;;;;;;;;;;4990489;28;20062;-82
2021/08/01 04:12:35;;;;;;;3.80;2.53;;;;;;;;;;4990394;28;20142;-82
2021/08/01 04:15:02;;;;;;;4.78;3.25;;;;;;;;;;4990802;28;20077;-82
2021/08/01 04:17:29;;;;;;;5.07;2.90;;;;;;;;;;4987268;28;20051;-83
2021/08/01 04:19:55;;;;;;;3.83;2.80;;;;;;;;;;4989988;28;20101;-83
2021/08/01 04:22:22;;;;;;;8.68;2.28;;;;;;;;;;4990819;28;20054;-83
2021/08/01 04:24:48;;;;;;;5.22;2.28;;;;;;;;;;4990998;28;20065;-82
2021/08/01 04:27:15;;;;;;;3.15;2.67;;;;;;;;;;4990725;28;20058;-82
2021/08/01 04:29:43;;;;;;;5.50;3.25;;;;;;;;;;4990674;28;20054;-83
2021/08/01 04:32:09;;;;;;;4.30;2.50;;;;;;;;;;4990286;28;20498;-83
2021/08/01 04:45:44;;;;;;;3.60;2.78;;;;;;;;;;5126818;27;20375;-82
2021/08/01 04:48:11;;;;;;;3.08;2.38;;;;;;;;;;5127487;28;20518;-82
2021/08/01 04:50:37;;;;;;;3.25;2.22;;;;;;;;;;5127732;28;20044;-82
2021/08/01 04:53:04;;;;;;;4.80;2.38;;;;;;;;;;5123849;27;20113;-82
2021/08/01 04:55:31;;;;;;;4.20;2.85;;;;;;;;;;5116658;27;20047;-82
2021/08/01 04:57:58;;;;;;;3.40;2.55;;;;;;;;;;5106915;28;20120;-82
2021/08/01 05:00:24;;;;;;;2.38;1.90;;;;;;;;;;5106905;28;20400;-81
2021/08/01 05:02:52;;;;;;;9.60;6.80;;;;;;;;;;5106571;28;20097;-83
2021/08/01 05:05:19;;;;;;;8.57;5.60;;;;;;;;;;5106250;28;20467;-83
2021/08/01 05:07:46;;;;;;;6.38;5.30;;;;;;;;;;5106627;28;20044;-83
2021/08/01 05:10:12;;;;;;;7.05;3.78;;;;;;;;;;5108261;28;20044;-82
2021/08/01 05:12:39;;;;;;;6.28;4.60;;;;;;;;;;5126962;28;20112;-82
2021/08/01 05:15:06;;;;;;;7.07;3.42;;;;;;;;;;5126625;28;20552;-82
2021/08/01 05:17:32;;;;;;;4.65;3.20;;;;;;;;;;5126753;28;20073;-82
2021/08/01 05:20:00;;;;;;;5.15;3.58;;;;;;;;;;5126537;28;20043;-82
2021/08/01 05:22:27;;;;;;;6.95;2.50;;;;;;;;;;5126852;28;20407;-82
2021/08/01 05:24:53;;;;;;;5.47;3.35;;;;;;;;;;5126496;28;20047;-82
2021/08/01 05:27:20;;;;;;;9.60;5.10;;;;;;;;;;5126368;28;20051;-81
2021/08/01 05:29:46;;;;;;;4.43;2.75;;;;;;;;;;5126767;28;20040;-81
2021/08/01 05:32:13;;;;;;;14.98;4.25;;;;;;;;;;5126602;28;20043;-81
2021/08/01 05:34:39;;;;;;;6.38;3.60;;;;;;;;;;5111493;28;20056;-82
2021/08/01 05:37:07;;;;;;;5.32;3.72;;;;;;;;;;5105791;28;20055;-83
2021/08/01 05:39:34;;;;;;;7.30;3.38;;;;;;;;;;5106054;28;20047;-83
2021/08/01 05:42:01;;;;;;;5.32;3.25;;;;;;;;;;5105900;28;20478;-83
2021/08/01 05:44:27;;;;;;;3.85;2.65;;;;;;;;;;5105061;28;20048;-83
2021/08/01 05:46:54;;;;;;;6.05;4.47;;;;;;;;;;5091603;28;20059;-83
2021/08/01 05:49:20;;;;;;;5.22;3.17;;;;;;;;;;5091863;28;20048;-83
2021/08/01 05:51:47;;;;;;;7.35;2.72;;;;;;;;;;5092308;28;20048;-83
2021/08/01 05:54:15;;;;;;;6.40;3.80;;;;;;;;;;5092115;28;20063;-83
2021/08/01 05:56:41;;;;;;;3.85;2.90;;;;;;;;;;5091649;28;20052;-82
2021/08/01 05:59:08;;;;;;;6.82;3.25;;;;;;;;;;5092095;28;20052;-83
2021/08/01 06:01:35;;;;;;;3.83;2.72;;;;;;;;;;5092085;28;20051;-83
2021/08/01 06:04:01;;;;;;;6.63;3.63;;;;;;;;;;5091445;28;20087;-83
2021/08/01 06:06:28;;;;;;;2.78;2.05;;;;;;;;;;5091716;28;20048;-83
2021/08/01 06:08:56;;;;;;;6.32;2.53;;;;;;;;;;5091563;28;20052;-83
2021/08/01 06:11:24;;;;;;;5.80;3.22;;;;;;;;;;5091742;28;20160;-83
2021/08/01 06:13:50;;;;;;;4.55;2.13;;;;;;;;;;5091723;28;20060;-83
2021/08/01 06:16:17;;;;;;;4.90;2.88;;;;;;;;;;5091829;28;20040;-82
2021/08/01 06:18:44;;;;;;;3.40;2.25;;;;;;;;;;5091577;28;20044;-82
2021/08/01 06:21:14;;;;;;;2.33;2.05;;;;;;;;;;5091489;28;20055;-83
2021/08/01 06:23:42;;;;;;;5.38;2.88;;;;;;;;;;5091232;28;20051;-83
2021/08/01 06:26:09;;;;;;;4.95;2.67;;;;;;;;;;5091412;28;20063;-84
2021/08/01 06:28:37;;;;;;;4.38;2.95;;;;;;;;;;5091393;28;20039;-84
2021/08/01 06:31:03;;;;;;;2.50;1.55;;;;;;;;;;5091254;28;20075;-84
2021/08/01 06:33:30;;;;;;;3.47;1.85;;;;;;;;;;5091368;28;20044;-85
2021/08/01 06:35:57;;;;;;;3.33;1.85;;;;;;;;;;5091021;28;20492;-83
2021/08/01 06:38:23;;;;;;;4.18;2.30;;;;;;;;;;5091303;28;20056;-84
2021/08/01 06:40:50;;;;;;;3.33;1.63;;;;;;;;;;5091239;28;20055;-85
2021/08/01 06:43:16;;;;;;;2.72;1.98;;;;;;;;;;5087923;28;20067;-86
2021/08/01 06:45:44;;;;;;;2.78;1.85;;;;;;;;;;5087631;28;20044;-87
2021/08/01 06:48:11;;;;;;;4.32;2.17;;;;;;;;;;5089461;28;20047;-88
2021/08/01 06:50:38;;;;;;;2.88;1.55;;;;;;;;;;5090186;28;20044;-86
2021/08/01 06:53:05;;;;;;;4.18;1.40;;;;;;;;;;5091006;28;20050;-86
2021/08/01 06:55:31;;;;;;;3.03;1.17;;;;;;;;;;5090490;28;20059;-86
2021/08/01 06:57:58;;;;;;;2.47;1.58;;;;;;;;;;5089655;28;20036;-86
2021/08/01 07:00:26;;;;;;;2.95;1.90;;;;;;;;;;5090234;28;20044;-87
2021/08/01 07:02:54;;;;;;;7.45;1.85;;;;;;;;;;5090479;28;20036;-86
2021/08/01 07:05:24;;;;;;;2.83;1.38;;;;;;;;;;5090337;28;20504;-85
2021/08/01 07:07:51;;;;;;;2.78;1.63;;;;;;;;;;5089496;28;20495;-84
2021/08/01 07:10:17;;;;;;;2.15;1.40;;;;;;;;;;5090720;28;20059;-84
2021/08/01 07:12:44;;;;;;;4.05;2.15;;;;;;;;;;5090685;28;20079;-84
2021/08/01 07:15:12;;;;;;;3.40;2.00;;;;;;;;;;5090274;28;20052;-86
2021/08/01 07:17:38;;;;;;;3.13;1.85;;;;;;;;;;5090159;28;20052;-85
2021/08/01 07:20:08;;;;;;;6.75;1.95;;;;;;;;;;5090574;28;20377;-85
2021/08/01 07:22:34;;;;;;;3.17;2.22;;;;;;;;;;5090457;28;20044;-86
2021/08/01 07:25:01;;;;;;;3.13;2.28;;;;;;;;;;5090146;28;20071;-86
2021/08/01 07:27:27;;;;;;;7.80;3.40;;;;;;;;;;5090041;28;20047;-85
2021/08/01 07:29:54;;;;;;;8.23;4.63;;;;;;;;;;5089988;28;20051;-85
2021/08/01 07:32:21;;;;;;;15.48;5.32;;;;;;;;;;5089667;28;20040;-85
2021/08/01 07:34:48;;;;;;;8.13;4.53;;;;;;;;;;5089776;28;20530;-86
2021/08/01 07:37:16;;;;;;;7.40;4.38;;;;;;;;;;5090241;28;20052;-84
2021/08/01 07:39:43;;;;;;;10.18;4.40;;;;;;;;;;5089990;28;20485;-86
2021/08/01 07:42:10;;;;;;;13.18;4.35;;;;;;;;;;5089991;28;20067;-87
2021/08/01 07:44:46;;;;;;;7.32;4.38;;;;;;;;;;5089608;28;20590;-86
2021/08/01 07:47:12;;;;;;;7.43;4.28;;;;;;;;;;5090069;28;20043;-85
2021/08/01 07:49:39;;;;;;;8.18;4.18;;;;;;;;;;5089771;28;20051;-86
2021/08/01 07:52:06;;;;;;;10.57;4.13;;;;;;;;;;5089748;28;20492;-86
2021/08/01 07:54:34;;;;;;;7.65;3.42;;;;;;;;;;5089744;28;20052;-85
2021/08/01 07:57:00;;;;;;;10.45;5.03;;;;;;;;;;5089733;28;20052;-86
2021/08/01 07:59:27;;;;;;;7.82;3.97;;;;;;;;;;5087372;28;20048;-86
2021/08/01 08:01:53;;;;;;;6.68;3.65;;;;;;;;;;5087584;28;20048;-85
2021/08/01 08:04:20;;;;;;;5.40;2.65;;;;;;;;;;5088573;28;20431;-86
2021/08/01 08:06:46;;;;;;;9.80;3.58;;;;;;;;;;5089634;28;20052;-86
2021/08/01 08:09:13;;;;;;;5.45;3.28;;;;;;;;;;5089289;28;20056;-86
2021/08/01 08:11:41;;;;;;;4.78;2.30;;;;;;;;;;5089136;28;20125;-87
2021/08/01 08:14:07;;;;;;;3.67;2.65;;;;;;;;;;5089216;28;20043;-86
2021/08/01 08:16:34;;;;;;;4.47;2.63;;;;;;;;;;5089430;28;20094;-87
2021/08/01 08:19:00;;;;;;;4.28;2.30;;;;;;;;;;5089222;28;20060;-87
2021/08/01 08:21:27;;;;;;;21.17;3.35;;;;;;;;;;5089150;28;20047;-86
2021/08/01 08:23:53;;;;;;;6.70;2.65;;;;;;;;;;5089468;28;20048;-86
2021/08/01 08:26:20;;;;;;;4.00;2.10;;;;;;;;;;5089289;28;20428;-86
2021/08/01 08:28:48;;;;;;;2.97;1.75;;;;;;;;;;5089114;28;20052;-85
2021/08/01 08:31:14;;;;;;;3.15;1.90;;;;;;;;;;5088801;28;20488;-86
2021/08/01 08:33:42;;;;;;;3.75;2.20;;;;;;;;;;5089170;28;20400;-86
2021/08/01 08:36:09;;;;;;;2.83;1.83;;;;;;;;;;5089082;28;20044;-86
2021/08/01 08:38:35;;;;;;;2.22;1.58;;;;;;;;;;5089131;28;20044;-85
2021/08/01 08:41:02;;;;;;;2.63;1.38;;;;;;;;;;5088726;28;20134;-85
2021/08/01 08:43:28;;;;;;;3.42;2.05;;;;;;;;;;5089077;28;20051;-87
2021/08/01 08:45:57;;;;;;;4.05;2.38;;;;;;;;;;5089042;28;20052;-86
2021/08/01 08:48:26;;;;;;;2.75;2.13;;;;;;;;;;5089071;28;20051;-88
2021/08/01 08:50:56;;;;;;;4.45;1.95;;;;;;;;;;5089113;28;20044;-87
2021/08/01 08:53:25;;;;;;;3.72;1.95;;;;;;;;;;5089016;28;20055;-87
2021/08/01 08:55:53;;;;;;;3.30;1.50;;;;;;;;;;5088603;28;20055;-86
2021/08/01 08:58:20;;;;;;;1.60;1.10;;;;;;;;;;5088927;28;20071;-85
2021/08/01 09:00:47;;;;;;;4.28;2.03;;;;;;;;;;5089080;28;20048;-88
2021/08/01 09:03:15;;;;;;;3.15;1.40;;;;;;;;;;5088950;28;20052;-88
2021/08/01 09:05:42;;;;;;;4.30;2.90;;;;;;;;;;5088558;28;20503;-87
2021/08/01 09:08:08;;;;;;;3.30;1.95;;;;;;;;;;5088844;28;20052;-86
2021/08/01 09:10:35;;;;;;;5.63;2.10;;;;;;;;;;5088649;28;20093;-87
2021/08/01 09:13:01;;;;;;;2.67;1.60;;;;;;;;;;5088624;28;20044;-88
2021/08/01 09:15:29;;;;;;;2.50;2.08;;;;;;;;;;5088537;28;20862;-85
2021/08/01 09:17:56;;;;;;;1.83;1.48;;;;;;;;;;5088390;28;20059;-85
2021/08/01 09:20:24;;;;;;;3.13;2.10;;;;;;;;;;5089531;28;20048;-86
2021/08/01 09:23:07;;;;;;;3.65;2.17;;;;;;;;;;5092731;28;20048;-87
2021/08/01 09:25:35;;;;;;;2.17;1.35;;;;;;;;;;5092375;28;20044;-86
2021/08/01 09:28:09;;;;;;;3.13;1.60;;;;;;;;;;5092219;28;20052;-85
2021/08/01 09:30:49;;;;;;;4.18;2.13;;;;;;;;;;5092495;28;20044;-87
2021/08/01 09:33:17;;;;;;;2.65;1.27;;;;;;;;;;5092500;28;20051;-86
2021/08/01 09:35:45;;;;;;;2.88;1.50;;;;;;;;;;5091834;28;20044;-88
2021/08/01 09:38:13;;;;;;;3.22;1.88;;;;;;;;;;5092111;28;20493;-87
2021/08/01 09:40:41;;;;;;;5.13;1.30;;;;;;;;;;5092242;28;20048;-87
2021/08/01 09:43:08;;;;;;;2.70;1.40;;;;;;;;;;5092233;28;20044;-87
2021/08/01 09:45:34;;;;;;;3.03;1.65;;;;;;;;;;5091695;28;20416;-88
2021/08/01 09:48:14;;;;;;;3.17;1.38;;;;;;;;;;5091747;28;20048;-88
2021/08/01 09:50:57;;;;;;;4.07;2.53;;;;;;;;;;5091712;28;20496;-87
2021/08/01 09:53:23;;;;;;;7.15;1.85;;;;;;;;;;5091716;28;20150;-86
2021/08/01 09:56:09;;;;;;;4.07;1.88;;;;;;;;;;5092022;28;20044;-87
2021/08/01 09:58:36;;;;;;;5.53;1.75;;;;;;;;;;5091639;28;20083;-89
2021/08/01 10:01:03;;;;;;;2.63;1.85;;;;;;;;;;5091383;28;20131;-89
2021/08/01 10:03:34;;;;;;;2.08;1.42;;;;;;;;;;5091779;28;20499;-89
2021/08/01 10:06:08;;;;;;;1.70;1.10;;;;;;;;;;5091528;28;20725;-86
2021/08/01 10:08:36;;;;;;;3.63;1.70;;;;;;;;;;5091934;28;20097;-88
2021/08/01 10:11:08;;;;;;;3.53;1.92;;;;;;;;;;5091717;28;20076;-89
2021/08/01 10:13:35;;;;;;;2.33;1.67;;;;;;;;;;5091933;28;20058;-88
2021/08/01 10:16:01;;;;;;;2.40;1.33;;;;;;;;;;5044968;28;20048;-87
2021/08/01 10:18:29;;;;;;;2.78;1.23;;;;;;;;;;5071570;28;20131;-89
2021/08/01 10:20:56;;;;;;;1.58;1.10;;;;;;;;;;5071175;28;20052;-87
2021/08/01 10:23:24;;;;;;;2.85;1.25;;;;;;;;;;5071214;28;20053;-87
2021/08/01 10:25:51;;;;;;;1.85;0.88;;;;;;;;;;5070983;28;20055;-86
2021/08/01 10:28:20;;;;;;;5.60;1.48;;;;;;;;;;5071378;28;20072;-87
2021/08/01 10:30:47;;;;;;;1.77;1.20;;;;;;;;;;5070796;28;20048;-87
2021/08/01 10:33:16;;;;;;;2.83;1.58;;;;;;;;;;5071238;28;20444;-88
2021/08/01 10:35:47;;;;;;;2.70;1.55;;;;;;;;;;5070983;28;20122;-88
2021/08/01 10:38:15;;;;;;;1.88;0.85;;;;;;;;;;5071108;28;20052;-88
2021/08/01 10:40:44;;;;;;;2.75;1.55;;;;;;;;;;5070854;28;20060;-90
2021/08/01 10:43:11;;;;;;;3.42;1.88;;;;;;;;;;5070808;28;20412;-87
2021/08/01 10:45:42;;;;;;;6.10;1.95;;;;;;;;;;5070964;28;20052;-87
2021/08/01 10:48:10;;;;;;;4.10;1.75;;;;;;;;;;5070726;28;20076;-85
2021/08/01 10:50:37;;;;;;;4.25;1.73;;;;;;;;;;5066882;28;20048;-87
2021/08/01 10:53:23;;;;;;;2.80;1.80;;;;;;;;;;5068387;28;20409;-88
2021/08/01 10:55:53;;;;;;;1.92;1.10;;;;;;;;;;5069695;28;20493;-86
2021/08/01 10:58:20;;;;;;;2.90;1.67;;;;;;;;;;5070574;28;20044;-87
2021/08/01 11:00:58;;;;;;;3.28;1.48;;;;;;;;;;5070291;28;20059;-87
2021/08/01 11:03:24;;;;;;;2.33;1.27;;;;;;;;;;5070185;28;20098;-88
2021/08/01 11:05:51;;;;;;;3.30;1.73;;;;;;;;;;5070341;28;20485;-86
2021/08/01 11:08:18;;;;;;;2.70;1.58;;;;;;;;;;5070133;28;20497;-87
2021/08/01 11:10:45;;;;;;;3.35;1.65;;;;;;;;;;5070572;28;20049;-88
2021/08/01 11:13:30;;;;;;;4.13;2.03;;;;;;;;;;5070121;28;20497;-88
2021/08/01 11:15:58;;;;;;;2.65;1.65;;;;;;;;;;5070262;28;20041;-85
2021/08/01 11:18:31;;;;;;;3.08;1.05;;;;;;;;;;5070416;28;20048;-88
2021/08/01 11:20:59;;;;;;;2.45;1.38;;;;;;;;;;5070212;28;20094;-88
2021/08/01 11:23:40;;;;;;;4.43;1.67;;;;;;;;;;5070184;28;20044;-86
2021/08/01 11:26:08;;;;;;;3.05;1.65;;;;;;;;;;5069532;28;20052;-87
2021/08/01 11:28:35;;;;;;;2.63;1.70;;;;;;;;;;5069728;28;20044;-86
2021/08/01 11:31:21;;;;;;;2.35;1.35;;;;;;;;;;5063856;28;20081;-89
2021/08/01 11:33:49;;;;;;;1.90;1.00;;;;;;;;;;5049658;28;20041;-86
2021/08/01 11:36:23;;;;;;;5.90;1.40;;;;;;;;;;5049670;28;20390;-88
2021/08/01 11:39:00;;;;;;;2.20;1.35;;;;;;;;;;5049900;28;20421;-87
2021/08/01 11:41:43;;;;;;;4.60;2.13;;;;;;;;;;5049665;28;20052;-88
2021/08/01 11:44:14;;;;;;;3.90;2.35;;;;;;;;;;5048729;28;20057;-87
2021/08/01 11:46:59;;;;;;;2.65;1.90;;;;;;;;;;5049180;28;20552;-88
2021/08/01 11:49:28;;;;;;;2.85;1.48;;;;;;;;;;5049947;28;20056;-88
2021/08/01 11:51:55;;;;;;;2.22;1.45;;;;;;;;;;5050105;28;20098;-88
2021/08/01 11:54:26;;;;;;;10.98;2.38;;;;;;;;;;5049396;28;20398;-89
2021/08/01 11:56:55;;;;;;;8.43;1.75;;;;;;;;;;5049280;28;20045;-93
2021/08/01 11:59:21;;;;;;;2.70;1.55;;;;;;;;;;5049071;28;20045;-89
2021/08/01 12:01:48;;;;;;;3.38;1.77;;;;;;;;;;5049461;28;20495;-88
2021/08/01 12:04:15;;;;;;;6.03;3.00;;;;;;;;;;5049507;28;20048;-85
2021/08/01 12:06:43;;;;;;;5.50;2.55;;;;;;;;;;5049164;28;20053;-86
2021/08/01 12:09:16;;;;;;;2.00;1.23;;;;;;;;;;5049477;28;20048;-86
2021/08/01 12:11:43;;;;;;;5.07;3.25;;;;;;;;;;5049288;28;20114;-86
2021/08/01 12:14:10;;;;;;;5.82;2.78;;;;;;;;;;5049279;28;20542;-83
2021/08/01 12:16:37;;;;;;;4.50;2.45;;;;;;;;;;5049003;28;20094;-84
2021/08/01 12:19:13;;;;;;;2.63;1.70;;;;;;;;;;5049139;28;20079;-83
2021/08/01 12:21:40;;;;;;;3.28;1.67;;;;;;;;;;5049230;28;20089;-83
2021/08/01 12:24:25;;;;;;;4.25;2.10;;;;;;;;;;5049016;28;20140;-83
2021/08/01 12:26:52;;;;;;;5.43;2.75;;;;;;;;;;5048802;28;20099;-83
2021/08/01 12:29:27;;;;;;;2.92;1.58;;;;;;;;;;5048971;28;20049;-83
2021/08/01 12:31:53;;;;;;;2.40;1.77;;;;;;;;;;5062128;28;20044;-83
2021/08/01 12:34:21;;;;;;;3.60;1.98;;;;;;;;;;5068965;28;20071;-84
2021/08/01 12:36:47;;;;;;;2.85;1.75;;;;;;;;;;5068783;28;20049;-83
2021/08/01 12:39:18;;;;;;;2.85;1.92;;;;;;;;;;5068784;28;20044;-84
2021/08/01 12:41:44;;;;;;;3.67;1.48;;;;;;;;;;5069309;28;20059;-84
2021/08/01 12:44:15;;;;;;;2.95;1.58;;;;;;;;;;5068874;28;20060;-84
2021/08/01 12:46:42;;;;;;;3.40;2.15;;;;;;;;;;5068525;28;20056;-83
2021/08/01 12:49:08;;;;;;;2.47;1.70;;;;;;;;;;5069004;28;20425;-83
2021/08/01 12:51:35;;;;;;;2.95;1.83;;;;;;;;;;5060749;28;20449;-86
2021/08/01 12:54:02;;;;;;;3.75;2.10;;;;;;;;;;5048022;28;20049;-87
2021/08/01 12:56:30;;;;;;;2.97;2.05;;;;;;;;;;5046016;28;20524;-86
2021/08/01 12:59:09;;;;;;;2.35;1.35;;;;;;;;;;5051882;28;20520;-84
2021/08/01 13:01:38;;;;;;;4.78;2.10;;;;;;;;;;5051884;28;20053;-83
2021/08/01 13:04:06;;;;;;;2.58;1.50;;;;;;;;;;5050748;28;20098;-83
2021/08/01 13:06:33;;;;;;;4.38;1.63;;;;;;;;;;5052102;28;20398;-84
2021/08/01 13:09:03;;;;;;;5.70;3.47;;;;;;;;;;5052155;28;20051;-84
2021/08/01 13:11:33;;;;;;;2.30;1.42;;;;;;;;;;5054247;28;20081;-83
2021/08/01 13:14:00;;;;;;;3.13;2.03;;;;;;;;;;5060595;28;20480;-83
2021/08/01 13:16:46;;;;;;;3.58;1.90;;;;;;;;;;5070740;28;20044;-85
2021/08/01 13:19:13;;;;;;;3.83;1.70;;;;;;;;;;5072763;28;21053;-83
2021/08/01 13:21:40;;;;;;;2.33;1.42;;;;;;;;;;5072417;28;20448;-84
2021/08/01 13:24:10;;;;;;;2.55;1.80;;;;;;;;;;5072463;28;20060;-84
2021/08/01 13:26:38;;;;;;;4.43;1.45;;;;;;;;;;5072186;28;20056;-84
2021/08/01 13:29:05;;;;;;;2.42;1.50;;;;;;;;;;5072269;28;20440;-83
2021/08/01 13:31:43;;;;;;;2.05;1.55;;;;;;;;;;5062456;28;20441;-84
2021/08/01 13:34:10;;;;;;;4.85;1.13;;;;;;;;;;5051973;28;20051;-85
2021/08/01 13:36:43;;;;;;;3.63;1.40;;;;;;;;;;5052141;28;20041;-85
2021/08/01 13:39:11;;;;;;;2.40;1.30;;;;;;;;;;5051905;28;20545;-83
2021/08/01 13:41:39;;;;;;;2.00;1.45;;;;;;;;;;5052172;28;20482;-86
2021/08/01 13:44:13;;;;;;;2.78;1.63;;;;;;;;;;5052046;28;20064;-86
2021/08/01 13:46:39;;;;;;;4.30;2.38;;;;;;;;;;5032147;28;20107;-86
2021/08/01 13:49:06;;;;;;;4.88;1.95;;;;;;;;;;5031616;28;20399;-87
2021/08/01 13:51:35;;;;;;;3.45;1.85;;;;;;;;;;5042518;28;20060;-90
2021/08/01 13:54:03;;;;;;;2.92;1.20;;;;;;;;;;5033590;28;20060;-85
2021/08/01 13:56:30;;;;;;;2.08;1.08;;;;;;;;;;5032172;28;20053;-87
2021/08/01 13:58:58;;;;;;;5.28;1.48;;;;;;;;;;5031650;28;20045;-85
2021/08/01 14:01:24;;;;;;;1.63;1.02;;;;;;;;;;5031608;28;20080;-89
2021/08/01 14:03:51;;;;;;;2.08;1.30;;;;;;;;;;5031516;28;20101;-86
2021/08/01 14:06:17;;;;;;;2.72;1.25;;;;;;;;;;5030903;28;20064;-87
2021/08/01 14:08:44;;;;;;;2.13;1.45;;;;;;;;;;5031500;28;20045;-86
2021/08/01 14:11:11;;;;;;;2.50;1.40;;;;;;;;;;5031687;28;20045;-85
2021/08/01 14:13:37;;;;;;;4.70;2.67;;;;;;;;;;5031567;28;20056;-88
2021/08/01 14:16:06;;;;;;;3.00;1.50;;;;;;;;;;5031695;28;20049;-87
2021/08/01 14:18:32;;;;;;;2.92;1.52;;;;;;;;;;5031423;28;20056;-91
2021/08/01 14:20:59;;;;;;;2.15;1.20;;;;;;;;;;5031585;28;20053;-87
2021/08/01 14:23:27;;;;;;;4.05;1.52;;;;;;;;;;5031132;28;20053;-89
2021/08/01 14:25:55;;;;;;;3.38;0.70;;;;;;;;;;5031155;28;20516;-88
2021/08/01 14:28:22;;;;;;;2.95;0.98;;;;;;;;;;5031321;28;20108;-86
2021/08/01 14:30:49;;;;;;;1.90;1.10;;;;;;;;;;5038819;28;20052;-87
2021/08/01 14:33:17;;;;;;;3.05;1.13;;;;;;;;;;5070795;28;20044;-87
2021/08/01 14:35:44;;;;;;;1.20;0.70;;;;;;;;;;5070887;28;20068;-89
2021/08/01 14:38:11;;;;;;;1.52;0.60;;;;;;;;;;5070834;28;20447;-91
2021/08/01 14:40:39;;;;;;;2.13;1.40;;;;;;;;;;5071157;28;20052;-91
2021/08/01 14:43:06;;;;;;;2.35;0.85;;;;;;;;;;5070662;28;20052;-86
2021/08/01 14:45:33;;;;;;;2.25;0.88;;;;;;;;;;5070875;28;20062;-86
2021/08/01 14:48:01;;;;;;;2.10;1.45;;;;;;;;;;5070618;28;20052;-87
2021/08/01 14:50:37;;;;;;;1.73;0.88;;;;;;;;;;5070778;28;20048;-89
2021/08/01 14:53:02;;;;;;;2.88;1.10;;;;;;;;;;5070481;28;20052;-88
2021/08/01 14:55:29;;;;;;;2.55;1.35;;;;;;;;;;5070668;28;20059;-89
2021/08/01 14:57:58;;;;;;;4.75;1.60;;;;;;;;;;5068844;28;20043;-88
2021/08/01 15:00:27;;;;;;;1.65;1.05;;;;;;;;;;5070504;28;20056;-87